Time;durP1;ratioP1;P1;durP2;ratioP2;P2;SDS_P1;SDS_P2;PMS_P1;PMS_P2;Temp;Humidity;BMP_temperature;BMP_pressure;BME280_temperature;BME280_humidity;BME280_pressure;Samples;Min_cycle;Max_cycle;Signal;HPM_P1;HPM_P2
2022/03/23 00:01:10;;;;;;;57.80;25.75;;;;;;;8.37;78.79;102974.28;4990379;28;20056;-52
2022/03/23 00:03:35;;;;;;;55.80;26.45;;;;;;;8.30;78.59;102972.91;4992897;28;20087;-52
2022/03/23 00:06:02;;;;;;;57.17;26.52;;;;;;;8.27;80.08;102967.81;5000499;28;20030;-51
2022/03/23 00:08:27;;;;;;;50.58;25.60;;;;;;;8.28;79.50;102966.84;5008087;28;20030;-50
2022/03/23 00:10:52;;;;;;;51.10;25.75;;;;;;;8.27;79.70;102971.31;4993246;28;20421;-52
2022/03/23 00:13:18;;;;;;;61.50;27.08;;;;;;;8.25;79.27;102970.56;4993000;28;20101;-52
2022/03/23 00:15:43;;;;;;;56.80;26.15;;;;;;;8.24;80.49;102974.16;4991742;28;20385;-50
2022/03/23 00:18:09;;;;;;;58.42;27.42;;;;;;;8.19;80.22;102963.78;5006994;28;20076;-48
2022/03/23 00:20:34;;;;;;;56.90;26.00;;;;;;;8.17;79.46;102965.69;5012790;28;20025;-50
2022/03/23 00:23:00;;;;;;;58.13;24.38;;;;;;;8.07;79.39;102961.88;5009894;28;20055;-51
2022/03/23 00:25:26;;;;;;;51.60;25.50;;;;;;;7.99;80.20;102964.13;5010163;28;20131;-52
2022/03/23 00:27:51;;;;;;;59.15;26.13;;;;;;;7.94;81.38;102974.19;4991965;28;20033;-47
2022/03/23 00:30:17;;;;;;;57.00;25.08;;;;;;;7.91;81.41;102972.59;5005631;28;20025;-53
2022/03/23 00:32:42;;;;;;;62.55;25.00;;;;;;;7.85;81.45;102968.47;5011827;28;20053;-51
2022/03/23 00:35:08;;;;;;;51.70;24.73;;;;;;;7.81;82.03;102972.28;5003371;28;20069;-50
2022/03/23 00:37:33;;;;;;;61.30;25.00;;;;;;;7.74;81.50;102970.06;5010284;28;20096;-51
2022/03/23 00:39:58;;;;;;;58.33;24.90;;;;;;;7.72;81.72;102964.84;5012679;28;20480;-50
2022/03/23 00:42:24;;;;;;;58.47;25.85;;;;;;;7.70;82.51;102971.19;5011930;28;20021;-49
2022/03/23 00:44:51;;;;;;;60.67;25.42;;;;;;;7.66;83.07;102965.19;4997082;28;20052;-53
2022/03/23 00:47:17;;;;;;;57.38;25.50;;;;;;;7.59;83.35;102964.69;4990988;28;20270;-51
2022/03/23 00:49:42;;;;;;;54.08;25.23;;;;;;;7.58;83.30;102970.09;4992842;28;20044;-52
2022/03/23 00:52:08;;;;;;;54.85;24.73;;;;;;;7.53;82.77;102965.03;5005992;28;20145;-51
2022/03/23 00:54:34;;;;;;;55.70;25.30;;;;;;;7.49;83.10;102968.00;5002719;28;20030;-51
2022/03/23 00:57:09;;;;;;;52.00;24.23;;;;;;;7.39;83.47;102972.97;5012495;28;20045;-50
2022/03/23 00:59:34;;;;;;;50.92;24.13;;;;;;;7.34;84.31;102962.59;5004887;28;20072;-53
2022/03/23 01:02:02;;;;;;;60.13;25.58;;;;;;;7.35;83.72;102964.31;4994529;28;20029;-51
2022/03/23 01:04:28;;;;;;;48.63;24.08;;;;;;;7.34;84.02;102978.53;5011998;28;20026;-52
2022/03/23 01:06:54;;;;;;;54.95;24.30;;;;;;;7.33;84.49;102976.84;5013257;28;20263;-50
2022/03/23 01:09:23;;;;;;;55.47;25.35;;;;;;;7.35;84.94;102974.94;5001306;28;20022;-52
2022/03/23 01:11:53;;;;;;;57.80;24.83;;;;;;;7.32;84.46;102969.81;4999406;28;20072;-51
2022/03/23 01:14:20;;;;;;;53.83;24.05;;;;;;;7.24;84.14;102964.91;5011967;28;20025;-52
2022/03/23 01:16:45;;;;;;;47.38;24.15;;;;;;;7.22;84.44;102966.81;4993087;28;20257;-49
2022/03/23 01:19:12;;;;;;;50.83;23.52;;;;;;;7.07;83.31;102963.19;4992464;28;20064;-51
2022/03/23 01:21:37;;;;;;;55.30;25.05;;;;;;;7.02;85.55;102956.44;4990450;28;20022;-47
2022/03/23 01:24:06;;;;;;;61.78;25.42;;;;;;;6.95;86.21;102955.91;5009123;28;20029;-50
2022/03/23 01:26:31;;;;;;;64.47;24.60;;;;;;;6.91;86.27;102959.72;5009421;28;20336;-50
2022/03/23 01:28:57;;;;;;;53.45;25.48;;;;;;;6.86;86.49;102951.97;5011421;28;20017;-50
2022/03/23 01:31:22;;;;;;;52.42;24.98;;;;;;;6.83;86.85;102946.84;5009829;28;20108;-51
2022/03/23 01:33:48;;;;;;;60.35;24.33;;;;;;;6.75;86.98;102948.19;5008723;28;20017;-52
2022/03/23 01:36:13;;;;;;;54.95;25.98;;;;;;;6.73;87.73;102949.13;5012215;28;20042;-52
2022/03/23 01:38:38;;;;;;;60.63;25.25;;;;;;;6.68;87.65;102951.19;5022989;28;20083;-52
2022/03/23 01:41:04;;;;;;;56.53;25.58;;;;;;;6.61;88.78;102941.84;5014738;28;20062;-49
2022/03/23 01:43:29;;;;;;;53.28;25.00;;;;;;;6.57;87.75;102944.75;5011301;28;20504;-52
2022/03/23 01:45:55;;;;;;;49.03;25.38;;;;;;;6.49;90.18;102937.22;5010266;28;20056;-52
2022/03/23 01:48:21;;;;;;;54.72;25.05;;;;;;;6.42;89.01;102944.63;5014580;28;20044;-52
2022/03/23 01:50:47;;;;;;;57.45;25.58;;;;;;;6.37;90.42;102937.88;5001659;28;20655;-53
2022/03/23 01:53:12;;;;;;;60.45;24.45;;;;;;;6.33;89.91;102942.47;4994985;28;20330;-50
2022/03/23 01:55:38;;;;;;;49.30;24.55;;;;;;;6.30;91.12;102942.66;4995093;28;20037;-51
2022/03/23 01:58:03;;;;;;;53.00;24.95;;;;;;;6.28;91.51;102937.41;4995277;28;20431;-48
2022/03/23 02:00:29;;;;;;;66.20;26.00;;;;;;;6.29;92.28;102938.25;4995167;28;20516;-48
2022/03/23 02:02:55;;;;;;;53.80;26.60;;;;;;;6.27;91.34;102930.38;4995365;28;20033;-50
2022/03/23 02:05:20;;;;;;;56.20;25.38;;;;;;;6.25;91.63;102934.94;4994618;28;20200;-50
2022/03/23 02:07:46;;;;;;;54.85;24.77;;;;;;;6.24;90.91;102935.84;4996303;28;20022;-50
2022/03/23 02:10:11;;;;;;;51.97;25.00;;;;;;;6.23;90.94;102930.63;5003400;28;20121;-49
2022/03/23 02:12:37;;;;;;;55.70;25.90;;;;;;;6.23;90.34;102931.50;5008424;28;20022;-52
2022/03/23 02:15:14;;;;;;;51.72;26.40;;;;;;;6.22;90.65;102928.94;5015147;28;20355;-50
2022/03/23 02:17:40;;;;;;;51.67;24.42;;;;;;;6.20;90.48;102933.47;5008064;28;20117;-52
2022/03/23 02:20:06;;;;;;;52.53;25.95;;;;;;;6.17;90.99;102934.47;4996262;28;20491;-50
2022/03/23 02:22:31;;;;;;;52.50;25.50;;;;;;;6.13;90.70;102927.63;5003056;28;20033;-51
2022/03/23 02:24:57;;;;;;;51.83;25.85;;;;;;;6.10;91.29;102927.78;5014429;28;20037;-49
2022/03/23 02:27:22;;;;;;;62.15;25.50;;;;;;;6.09;91.11;102934.00;5013980;28;20284;-51
2022/03/23 02:29:48;;;;;;;59.00;26.23;;;;;;;6.05;90.56;102927.16;4999574;28;20176;-51
2022/03/23 02:32:13;;;;;;;55.22;25.20;;;;;;;6.01;89.98;102926.47;5011738;28;20646;-50
2022/03/23 02:34:39;;;;;;;59.85;25.50;;;;;;;5.99;90.30;102936.28;5014041;28;20025;-52
2022/03/23 02:37:05;;;;;;;55.13;25.60;;;;;;;5.96;91.18;102936.47;5014474;28;20112;-51
2022/03/23 02:39:31;;;;;;;57.13;24.35;;;;;;;5.93;90.67;102939.22;5012956;28;20422;-50
2022/03/23 02:41:56;;;;;;;64.47;26.23;;;;;;;5.91;91.43;102923.38;5002100;28;20037;-50
2022/03/23 02:44:23;;;;;;;65.55;25.17;;;;;;;5.88;91.04;102933.31;5000541;28;20030;-49
2022/03/23 02:46:48;;;;;;;55.60;25.58;;;;;;;5.88;91.54;102934.16;4993094;28;20079;-50
2022/03/23 02:49:16;;;;;;;51.42;24.50;;;;;;;5.84;91.72;102927.31;5002858;28;20029;-51
2022/03/23 02:51:42;;;;;;;57.80;26.13;;;;;;;5.86;91.88;102929.88;5014039;28;20033;-48
2022/03/23 03:03:22;;;;;;;52.83;25.00;;;;;;;5.81;91.57;102932.75;4995058;28;20195;-51
2022/03/23 03:05:48;;;;;;;60.05;25.65;;;;;;;5.79;91.82;102929.34;4993828;28;20034;-48
2022/03/23 03:10:57;;;;;;;54.53;25.27;;;;;;;5.73;91.31;102929.63;4994206;28;20125;-51
2022/03/23 03:13:22;;;;;;;51.55;24.55;;;;;;;5.73;92.21;102927.84;4998585;28;20136;-48
2022/03/23 03:15:47;;;;;;;55.53;25.30;;;;;;;5.69;92.19;102928.94;4993119;28;20026;-50
2022/03/23 03:18:13;;;;;;;57.25;25.15;;;;;;;5.66;92.50;102938.84;4981957;28;20029;-51
2022/03/23 03:20:38;;;;;;;51.88;24.27;;;;;;;5.67;93.24;102940.53;5013401;28;20029;-51
2022/03/23 03:23:03;;;;;;;63.55;25.65;;;;;;;5.67;92.30;102946.72;5001705;28;20112;-51
2022/03/23 03:25:29;;;;;;;57.83;25.05;;;;;;;5.64;93.16;102952.16;5007230;28;20375;-52
2022/03/23 03:27:54;;;;;;;52.38;24.95;;;;;;;5.59;93.00;102951.53;5008942;28;20049;-49
2022/03/23 03:30:20;;;;;;;52.65;24.00;;;;;;;5.53;93.03;102950.06;5000462;28;20025;-50
2022/03/23 03:32:46;;;;;;;56.95;23.08;;;;;;;5.45;93.10;102952.22;5027349;28;20431;-51
2022/03/23 03:35:12;;;;;;;51.58;23.02;;;;;;;5.41;93.68;102951.53;5013535;28;20053;-47
2022/03/23 03:37:39;;;;;;;51.25;23.88;;;;;;;5.35;93.82;102950.97;5012240;28;20117;-49
2022/03/23 03:40:05;;;;;;;51.35;23.58;;;;;;;5.23;94.26;102955.06;5005601;28;20413;-50
2022/03/23 03:42:30;;;;;;;60.78;24.42;;;;;;;5.09;94.71;102952.22;4991819;28;20562;-49
2022/03/23 03:44:57;;;;;;;50.05;23.95;;;;;;;5.07;95.85;102951.44;4991974;28;20030;-51
2022/03/23 03:47:23;;;;;;;61.47;24.67;;;;;;;5.05;95.88;102952.34;4998149;28;20061;-47
2022/03/23 03:49:49;;;;;;;47.60;23.63;;;;;;;5.02;95.54;102952.53;4995969;28;20021;-51
2022/03/23 03:52:14;;;;;;;49.30;23.50;;;;;;;5.01;95.89;102948.16;4993520;28;20437;-49
2022/03/23 03:54:40;;;;;;;54.85;24.40;;;;;;;5.01;96.19;102953.44;4992312;28;20021;-50
2022/03/23 03:57:05;;;;;;;48.08;22.92;;;;;;;5.01;96.16;102948.16;4998096;28;20034;-50
2022/03/23 03:59:30;;;;;;;51.92;23.25;;;;;;;5.01;96.19;102950.78;4994905;28;20356;-51
2022/03/23 04:01:55;;;;;;;54.47;23.52;;;;;;;5.05;95.70;102957.66;4992354;28;20034;-51
2022/03/23 04:04:21;;;;;;;50.63;23.90;;;;;;;5.08;95.34;102953.16;4990498;28;20053;-52
2022/03/23 04:06:46;;;;;;;52.92;24.02;;;;;;;5.13;95.09;102946.69;4993300;28;20068;-52
2022/03/23 04:09:11;;;;;;;55.38;24.05;;;;;;;5.13;94.72;102946.69;4992409;28;20538;-51
2022/03/23 04:11:37;;;;;;;53.97;24.20;;;;;;;5.16;95.26;102953.63;5004002;28;20468;-51
2022/03/23 04:14:02;;;;;;;52.63;23.58;;;;;;;5.17;95.34;102948.25;5012232;28;20139;-52
2022/03/23 04:16:28;;;;;;;53.92;23.60;;;;;;;5.18;95.23;102952.63;5006044;28;20030;-53
2022/03/23 04:18:53;;;;;;;54.97;23.80;;;;;;;5.18;94.91;102942.03;5003013;28;20044;-49
2022/03/23 04:21:18;;;;;;;48.80;22.80;;;;;;;5.18;94.91;102947.34;4994825;28;20425;-51
2022/03/23 04:23:43;;;;;;;52.88;24.17;;;;;;;5.17;95.16;102945.59;4991926;28;20522;-50
2022/03/23 04:26:09;;;;;;;54.92;23.27;;;;;;;5.21;95.50;102951.63;4996088;28;20253;-50
2022/03/23 04:28:35;;;;;;;49.33;23.27;;;;;;;5.25;94.80;102949.69;5010383;28;20053;-48
2022/03/23 04:31:01;;;;;;;53.70;24.58;;;;;;;5.29;95.12;102946.81;5005022;28;20017;-51
2022/03/23 04:33:26;;;;;;;55.50;25.65;;;;;;;5.34;94.65;102951.88;5007488;28;20383;-52
2022/03/23 04:35:52;;;;;;;53.17;24.17;;;;;;;5.35;92.36;102956.28;5012758;28;20048;-50
2022/03/23 04:38:17;;;;;;;49.33;24.75;;;;;;;5.18;92.76;102947.34;5012055;28;20068;-49
2022/03/23 04:40:42;;;;;;;53.78;23.38;;;;;;;4.99;93.62;102954.44;4999617;28;20025;-52
2022/03/23 04:43:08;;;;;;;54.40;23.98;;;;;;;4.84;94.02;102958.69;4991893;28;20365;-51
2022/03/23 04:45:33;;;;;;;60.60;24.48;;;;;;;4.82;95.03;102969.34;4990966;28;20269;-51
2022/03/23 04:47:58;;;;;;;59.33;25.63;;;;;;;4.75;95.50;102961.75;5001264;28;20088;-50
2022/03/23 04:50:24;;;;;;;53.72;24.35;;;;;;;4.73;95.49;102964.44;5003052;28;20032;-51
2022/03/23 04:52:52;;;;;;;50.28;24.60;;;;;;;4.70;95.63;102963.75;5001582;28;20127;-51
2022/03/23 04:55:18;;;;;;;63.60;25.02;;;;;;;4.66;96.42;102957.72;4992152;28;20104;-48
2022/03/23 04:57:44;;;;;;;55.75;24.88;;;;;;;4.64;96.41;102968.38;4997726;28;20100;-48
2022/03/23 05:00:13;;;;;;;56.28;24.52;;;;;;;4.61;96.74;102965.88;4997400;28;20049;-47
2022/03/23 05:02:38;;;;;;;57.83;24.50;;;;;;;4.58;96.36;102966.03;4990470;28;20515;-49
2022/03/23 05:05:06;;;;;;;54.03;24.10;;;;;;;4.59;96.00;102966.88;4992954;28;20022;-52
2022/03/23 05:07:31;;;;;;;61.25;25.02;;;;;;;4.51;96.53;102961.94;4999255;28;20073;-47
2022/03/23 05:09:56;;;;;;;46.20;24.10;;;;;;;4.48;97.21;102973.53;5012658;28;20107;-48
2022/03/23 05:12:22;;;;;;;57.75;25.05;;;;;;;4.46;97.44;102966.56;5013535;28;20132;-51
2022/03/23 05:14:47;;;;;;;58.92;24.63;;;;;;;4.41;96.76;102971.19;5015887;28;20554;-49
2022/03/23 05:17:12;;;;;;;50.60;25.05;;;;;;;4.37;96.84;102972.28;5015149;28;20092;-51
2022/03/23 05:19:38;;;;;;;60.10;24.75;;;;;;;4.37;97.55;102974.94;5009449;28;20038;-48
2022/03/23 05:22:03;;;;;;;51.67;24.02;;;;;;;4.35;98.10;102975.00;5005915;28;20029;-48
2022/03/23 05:24:29;;;;;;;53.45;23.80;;;;;;;4.30;98.07;102971.69;5001061;28;20471;-50
2022/03/23 05:26:54;;;;;;;52.13;24.33;;;;;;;4.21;98.64;102965.03;4995651;28;20203;-51
2022/03/23 05:29:20;;;;;;;49.83;23.70;;;;;;;4.26;98.84;102970.09;4996206;28;20073;-51
2022/03/23 05:31:45;;;;;;;52.90;23.98;;;;;;;4.25;99.13;102973.69;5010927;28;20397;-50
2022/03/23 05:34:10;;;;;;;61.35;23.48;;;;;;;4.24;99.20;102978.13;5015424;28;20691;-51
2022/03/23 05:36:35;;;;;;;53.20;23.95;;;;;;;4.20;98.98;102980.97;5001091;28;20046;-49
2022/03/23 05:39:01;;;;;;;54.03;25.17;;;;;;;4.18;99.14;102977.53;4993710;28;20140;-51
2022/03/23 05:41:26;;;;;;;55.72;25.60;;;;;;;4.23;99.43;102986.13;4994495;28;20041;-52
2022/03/23 05:43:51;;;;;;;57.80;25.60;;;;;;;4.20;98.40;102992.38;4993465;28;20041;-52
2022/03/23 05:46:16;;;;;;;56.30;24.38;;;;;;;4.17;98.84;102995.16;4992001;28;20480;-52
2022/03/23 05:48:43;;;;;;;60.47;23.98;;;;;;;4.18;99.50;102993.41;4994050;28;20056;-49
2022/03/23 05:51:08;;;;;;;57.13;25.73;;;;;;;4.23;99.30;102989.63;5001373;28;20349;-48
2022/03/23 05:53:36;;;;;;;55.92;24.58;;;;;;;4.26;98.67;103001.81;4998134;28;20262;-52
2022/03/23 05:56:03;;;;;;;57.92;24.52;;;;;;;4.29;98.57;103009.63;4995850;28;20028;-49
2022/03/23 05:58:29;;;;;;;49.63;23.17;;;;;;;4.32;98.75;102998.09;4997241;28;20304;-51
2022/03/23 06:00:54;;;;;;;54.70;25.35;;;;;;;4.32;98.14;103006.88;5008308;28;20206;-51
2022/03/23 06:03:19;;;;;;;58.15;25.60;;;;;;;4.32;97.59;103009.50;5015060;28;20077;-52
2022/03/23 06:05:47;;;;;;;55.63;25.63;;;;;;;4.27;98.85;103012.34;5002201;28;20132;-53
2022/03/23 06:08:13;;;;;;;63.17;26.10;;;;;;;4.26;99.64;103017.69;4995136;28;20112;-49
2022/03/23 06:10:38;;;;;;;53.17;25.15;;;;;;;4.26;99.24;103009.75;4993941;28;20100;-50
2022/03/23 06:13:04;;;;;;;56.65;24.58;;;;;;;4.31;99.00;103007.78;4992624;28;20480;-52
2022/03/23 06:15:29;;;;;;;55.60;24.17;;;;;;;4.35;99.28;103012.03;4992692;28;20026;-51
2022/03/23 06:17:54;;;;;;;56.17;24.50;;;;;;;4.41;100.00;103014.41;4997874;28;20057;-51
2022/03/23 06:20:20;;;;;;;60.75;25.52;;;;;;;4.45;99.80;103016.00;4993547;28;20034;-51
2022/03/23 06:22:45;;;;;;;58.95;24.40;;;;;;;4.45;99.75;103010.69;4994861;28;20250;-51
2022/03/23 06:25:10;;;;;;;63.40;24.63;;;;;;;4.50;99.40;103018.44;4997304;28;20044;-52
2022/03/23 06:27:37;;;;;;;54.90;24.25;;;;;;;4.53;100.00;103017.44;5010498;28;20136;-51
2022/03/23 06:30:03;;;;;;;59.60;25.65;;;;;;;4.58;100.00;103013.66;5003403;28;20033;-51
2022/03/23 06:32:28;;;;;;;60.33;25.00;;;;;;;4.66;100.00;103013.31;5001894;28;20503;-50
2022/03/23 06:34:54;;;;;;;66.43;25.70;;;;;;;4.65;99.53;103016.88;5013569;28;20057;-51
2022/03/23 06:37:19;;;;;;;55.33;25.48;;;;;;;4.71;99.66;103013.97;4997798;28;20164;-49
2022/03/23 06:39:44;;;;;;;56.03;25.38;;;;;;;4.76;100.00;103027.84;5008658;28;20032;-52
2022/03/23 06:42:10;;;;;;;67.65;26.08;;;;;;;4.77;99.35;103031.34;5014740;28;20125;-52
2022/03/23 06:44:38;;;;;;;69.47;26.55;;;;;;;4.81;99.90;103028.50;5009520;28;20038;-50
2022/03/23 06:47:03;;;;;;;68.40;26.17;;;;;;;4.86;100.00;103031.78;4993426;28;20022;-51
2022/03/23 06:49:29;;;;;;;58.78;25.55;;;;;;;4.94;100.00;103035.88;4993739;28;20412;-51
2022/03/23 06:51:54;;;;;;;58.15;26.52;;;;;;;4.96;100.00;103032.25;4995205;28;20669;-53
2022/03/23 06:54:19;;;;;;;74.05;25.90;;;;;;;5.04;100.00;103032.75;4993135;28;20068;-50
2022/03/23 06:56:44;;;;;;;62.65;25.58;;;;;;;5.13;100.00;103036.75;4993885;28;20464;-47
2022/03/23 06:59:10;;;;;;;63.33;26.20;;;;;;;5.22;100.00;103038.13;4995158;28;20132;-52
2022/03/23 07:01:35;;;;;;;60.35;27.88;;;;;;;5.27;100.00;103038.75;5002326;28;20506;-52
2022/03/23 07:04:00;;;;;;;67.30;28.65;;;;;;;5.35;100.00;103036.59;4993513;28;20083;-51
2022/03/23 07:06:25;;;;;;;66.95;29.23;;;;;;;5.44;100.00;103040.59;4994033;28;20113;-51
2022/03/23 07:11:34;;;;;;;63.47;29.65;;;;;;;5.65;100.00;103045.81;5006106;28;20074;-50
2022/03/23 07:14:00;;;;;;;68.07;30.48;;;;;;;5.74;99.45;103048.03;5024731;28;20245;-51
2022/03/23 07:16:25;;;;;;;75.30;32.72;;;;;;;5.83;98.69;103044.91;4992561;28;20175;-50
2022/03/23 07:18:50;;;;;;;72.85;32.13;;;;;;;5.98;97.89;103046.81;4995351;28;20029;-50
2022/03/23 07:21:16;;;;;;;74.78;32.83;;;;;;;6.11;96.14;103046.19;4993639;28;20219;-49
2022/03/23 07:23:41;;;;;;;74.90;32.30;;;;;;;6.24;95.48;103060.56;5008927;28;20049;-50
2022/03/23 07:26:06;;;;;;;74.28;32.53;;;;;;;6.35;93.77;103060.88;5008013;28;20468;-50
2022/03/23 07:28:32;;;;;;;75.32;30.85;;;;;;;6.48;90.96;103057.59;4993589;28;20237;-48
2022/03/23 07:30:57;;;;;;;62.63;29.50;;;;;;;6.60;89.24;103058.75;5007327;28;20018;-48
2022/03/23 07:33:22;;;;;;;75.25;31.85;;;;;;;6.73;89.88;103065.97;4993791;28;20041;-50
2022/03/23 07:35:48;;;;;;;64.55;31.27;;;;;;;6.84;89.07;103062.78;4996258;28;20607;-51
2022/03/23 07:38:13;;;;;;;78.30;32.20;;;;;;;6.94;87.81;103063.13;4993801;28;20041;-50
2022/03/23 07:40:39;;;;;;;72.93;33.40;;;;;;;7.07;87.38;103063.31;4998541;28;20030;-52
2022/03/23 07:43:04;;;;;;;72.60;31.67;;;;;;;7.20;85.78;103058.22;4995731;28;20037;-52
2022/03/23 07:45:30;;;;;;;64.82;31.80;;;;;;;7.35;86.41;103061.78;4993045;28;20090;-51
2022/03/23 07:47:55;;;;;;;69.47;32.15;;;;;;;7.49;85.97;103067.22;5005435;28;20035;-52
2022/03/23 07:50:21;;;;;;;69.13;31.95;;;;;;;7.64;84.08;103062.84;5013408;28;20104;-52
2022/03/23 07:52:46;;;;;;;74.32;32.92;;;;;;;7.73;82.28;103064.97;5013373;28;20536;-53
2022/03/23 07:55:11;;;;;;;66.63;32.47;;;;;;;7.93;83.75;103070.94;4998639;28;20052;-51
2022/03/23 07:57:36;;;;;;;64.53;32.45;;;;;;;8.03;81.70;103069.47;4991423;28;20405;-52
2022/03/23 08:00:03;;;;;;;61.42;31.75;;;;;;;8.19;80.83;103074.72;4992819;28;20065;-51
2022/03/23 08:02:28;;;;;;;63.83;31.77;;;;;;;8.29;80.63;103075.06;5006994;28;20029;-51
2022/03/23 08:04:54;;;;;;;70.63;33.58;;;;;;;8.41;81.63;103069.84;4994257;28;20040;-52
2022/03/23 08:07:20;;;;;;;65.40;32.58;;;;;;;8.57;79.61;103079.59;4999881;28;20097;-49
2022/03/23 08:09:45;;;;;;;68.63;32.78;;;;;;;8.71;77.42;103084.13;5004369;28;20100;-52
2022/03/23 08:12:11;;;;;;;68.38;31.65;;;;;;;8.83;76.70;103083.34;4993429;28;20472;-48
2022/03/23 08:14:36;;;;;;;61.00;31.40;;;;;;;8.96;75.79;103083.44;4993063;28;20025;-50
2022/03/23 08:17:02;;;;;;;70.70;31.77;;;;;;;9.09;72.89;103076.38;4991814;28;20029;-48
2022/03/23 08:19:27;;;;;;;69.55;32.80;;;;;;;9.23;76.16;103080.00;5004077;28;20056;-49
2022/03/23 08:21:52;;;;;;;66.88;31.45;;;;;;;9.36;76.34;103085.41;5013035;28;20017;-51
2022/03/23 08:24:18;;;;;;;79.85;31.95;;;;;;;9.52;74.48;103080.78;4993670;28;20040;-49
2022/03/23 08:26:44;;;;;;;68.40;31.30;;;;;;;9.66;74.87;103086.09;4992850;28;20030;-51
2022/03/23 08:29:10;;;;;;;65.90;32.30;;;;;;;9.81;73.42;103083.38;4991732;28;20535;-47
2022/03/23 08:31:36;;;;;;;68.82;32.60;;;;;;;9.96;73.69;103082.38;5004801;28;20120;-51
2022/03/23 08:34:03;;;;;;;67.57;32.10;;;;;;;10.12;70.35;103079.53;5012609;28;20410;-50
2022/03/23 08:36:29;;;;;;;69.28;32.33;;;;;;;10.25;71.14;103076.88;5009905;28;20131;-50
2022/03/23 08:38:54;;;;;;;72.93;33.10;;;;;;;10.43;72.33;103077.47;4993387;28;21032;-47
2022/03/23 08:41:19;;;;;;;63.60;32.25;;;;;;;10.55;68.59;103081.97;4992445;28;20036;-48
2022/03/23 08:43:45;;;;;;;66.32;32.03;;;;;;;10.72;67.97;103072.78;4997180;28;20187;-49
2022/03/23 08:46:13;;;;;;;73.97;32.45;;;;;;;10.89;66.79;103076.09;5011315;28;20064;-51
2022/03/23 08:48:38;;;;;;;74.45;32.30;;;;;;;11.05;67.72;103076.75;5016666;28;20776;-48
2022/03/23 08:51:04;;;;;;;61.55;32.20;;;;;;;11.15;67.91;103080.47;4998060;28;20400;-51
2022/03/23 08:53:30;;;;;;;71.82;33.38;;;;;;;11.27;67.79;103084.06;5003363;28;20038;-52
2022/03/23 08:55:55;;;;;;;68.70;32.67;;;;;;;11.41;65.65;103090.25;5004234;28;20334;-51
2022/03/23 08:58:21;;;;;;;63.55;30.90;;;;;;;11.50;66.00;103079.72;5016439;28;20488;-47
2022/03/23 09:00:46;;;;;;;77.78;33.97;;;;;;;11.67;65.24;103083.81;5015390;28;20025;-49
2022/03/23 09:03:11;;;;;;;69.40;32.10;;;;;;;11.80;62.64;103081.09;5016447;28;20112;-50
2022/03/23 09:05:37;;;;;;;64.63;32.90;;;;;;;11.97;63.02;103082.56;5015513;28;20032;-52
2022/03/23 09:08:02;;;;;;;73.07;32.95;;;;;;;12.08;61.56;103085.28;5014302;28;20048;-48
2022/03/23 09:10:28;;;;;;;69.10;33.47;;;;;;;12.29;64.72;103085.47;5015525;28;20122;-50
2022/03/23 09:12:53;;;;;;;66.05;34.10;;;;;;;12.43;65.01;103081.72;5016806;28;20282;-51
2022/03/23 09:15:19;;;;;;;69.05;33.25;;;;;;;12.55;61.77;103084.44;5013550;28;20039;-50
2022/03/23 09:17:45;;;;;;;74.25;35.00;;;;;;;12.62;62.46;103085.66;5011976;28;20412;-47
2022/03/23 09:20:12;;;;;;;71.15;35.40;;;;;;;12.82;65.50;103078.75;5001807;28;20253;-50
2022/03/23 09:22:38;;;;;;;68.25;34.55;;;;;;;12.91;60.92;103082.53;4993896;28;20085;-48
2022/03/23 09:25:06;;;;;;;70.28;35.38;;;;;;;13.04;60.98;103085.94;4995276;28;20042;-51
2022/03/23 09:27:39;;;;;;;64.78;34.65;;;;;;;13.20;61.51;103089.13;5005199;28;20033;-49
2022/03/23 09:30:06;;;;;;;71.72;35.47;;;;;;;13.34;58.60;103081.78;5004596;28;20492;-51
2022/03/23 09:32:31;;;;;;;66.18;35.42;;;;;;;13.50;60.02;103089.47;5015369;28;20535;-50
2022/03/23 09:34:57;;;;;;;63.38;34.63;;;;;;;13.65;59.75;103087.38;5016570;28;20054;-50
2022/03/23 09:40:07;;;;;;;60.88;33.30;;;;;;;13.94;56.03;103084.94;5013183;28;20692;-49
2022/03/23 09:42:34;;;;;;;64.70;32.85;;;;;;;14.11;58.01;103080.84;4995234;28;20022;-50
2022/03/23 09:45:00;;;;;;;64.78;33.50;;;;;;;14.30;56.61;103083.66;4995283;28;20481;-51
2022/03/23 09:47:25;;;;;;;66.95;33.05;;;;;;;14.44;52.16;103093.22;4995967;28;20036;-49
2022/03/23 09:49:51;;;;;;;65.50;32.85;;;;;;;14.58;49.95;103088.50;4998388;28;20553;-52
2022/03/23 09:52:16;;;;;;;62.10;32.38;;;;;;;14.70;49.09;103082.09;5015854;28;20085;-48
2022/03/23 09:54:45;;;;;;;62.08;30.95;;;;;;;14.79;49.73;103089.34;5014164;28;20033;-50
2022/03/23 09:57:11;;;;;;;57.33;30.77;;;;;;;14.94;48.72;103079.09;5015074;28;20321;-51
2022/03/23 09:59:36;;;;;;;59.60;30.00;;;;;;;15.14;47.65;103088.09;5009910;28;20025;-48
2022/03/23 10:02:01;;;;;;;60.15;30.63;;;;;;;15.28;44.51;103085.03;5012576;28;20029;-48
2022/03/23 10:04:45;;;;;;;62.07;30.20;;;;;;;15.46;43.77;103081.66;5011643;28;20030;-51
2022/03/23 10:07:31;;;;;;;58.80;29.42;;;;;;;15.69;45.22;103082.28;5007978;28;20300;-51
2022/03/23 10:10:08;;;;;;;61.83;29.65;;;;;;;15.89;47.05;103088.56;4996062;28;20026;-51
2022/03/23 10:13:10;;;;;;;60.90;29.27;;;;;;;16.14;44.13;103087.16;5011471;28;20474;-50
2022/03/23 10:16:27;;;;;;;59.22;29.38;;;;;;;16.29;42.16;103092.09;5013871;28;20062;-47
2022/03/23 10:18:54;;;;;;;60.58;30.50;;;;;;;16.46;42.51;103093.19;5013835;28;20040;-48
2022/03/23 10:21:21;;;;;;;56.35;29.73;;;;;;;16.66;39.03;103084.06;5005257;28;20464;-51
2022/03/23 10:24:02;;;;;;;52.78;29.00;;;;;;;16.76;39.38;103084.03;5014763;28;20075;-50
2022/03/23 10:26:28;;;;;;;;;;;;;;;16.88;43.11;103082.88;4995264;28;20308;-49
2022/03/23 10:28:55;;;;;;;53.70;28.17;;;;;;;16.92;37.90;103078.91;4994036;28;20439;-51
2022/03/23 10:31:23;;;;;;;48.70;27.40;;;;;;;17.12;36.91;103079.66;5006717;28;20061;-47
2022/03/23 10:34:10;;;;;;;54.30;28.95;;;;;;;17.24;37.28;103079.44;5007396;28;20029;-52
2022/03/23 10:36:38;;;;;;;53.45;27.45;;;;;;;17.26;36.30;103077.44;5009717;28;20056;-48
2022/03/23 10:39:06;;;;;;;57.85;28.80;;;;;;;17.38;36.41;103080.78;4998079;28;20318;-50
2022/03/23 10:41:32;;;;;;;58.42;28.58;;;;;;;17.47;33.92;103079.88;5003995;28;20090;-49
2022/03/23 10:43:58;;;;;;;57.80;27.50;;;;;;;17.58;37.17;103082.34;4999943;28;20025;-49
2022/03/23 10:46:24;;;;;;;51.05;28.00;;;;;;;17.70;35.96;103080.28;5014108;28;20460;-51
2022/03/23 10:49:02;;;;;;;56.20;28.67;;;;;;;17.83;36.77;103079.91;5003678;28;20452;-51
2022/03/23 10:51:30;;;;;;;57.95;27.10;;;;;;;17.98;34.86;103074.84;4994786;28;20022;-48
2022/03/23 10:53:56;;;;;;;49.08;27.02;;;;;;;18.04;34.13;103068.78;5011821;28;20021;-48
2022/03/23 10:56:34;;;;;;;50.30;26.83;;;;;;;18.18;35.09;103070.13;5012724;28;20033;-52
2022/03/23 10:59:22;;;;;;;45.75;26.88;;;;;;;18.40;34.23;103069.59;5013905;28;20033;-50
2022/03/23 11:02:05;;;;;;;55.35;27.02;;;;;;;18.48;34.57;103070.66;4994502;28;20034;-51
2022/03/23 11:04:56;;;;;;;52.30;27.45;;;;;;;18.51;34.11;103054.09;4997421;28;20084;-50
2022/03/23 11:07:24;;;;;;;46.83;26.65;;;;;;;18.67;34.20;103061.44;5002721;28;20275;-52
2022/03/23 11:18:10;;;;;;;52.33;27.88;;;;;;;18.97;33.51;103060.97;4994557;28;20057;-52
2022/03/23 11:20:46;;;;;;;55.45;29.58;;;;;;;19.08;34.26;103062.53;4993328;28;20447;-52
2022/03/23 11:23:30;;;;;;;60.92;27.00;;;;;;;19.22;33.28;103054.81;5002384;28;20026;-52
2022/03/23 11:26:00;;;;;;;49.83;27.27;;;;;;;19.31;31.98;103051.94;5010098;28;20025;-50
2022/03/23 11:28:28;;;;;;;51.37;26.17;;;;;;;19.46;32.53;103057.56;5005143;28;20021;-47
2022/03/23 11:30:54;;;;;;;46.58;25.70;;;;;;;19.65;31.20;103060.97;4997646;28;20500;-49
2022/03/23 11:33:23;;;;;;;38.67;23.50;;;;;;;19.69;28.11;103060.50;5002835;28;20442;-50
2022/03/23 11:35:50;;;;;;;43.53;24.23;;;;;;;19.79;29.12;103052.25;5006209;28;20046;-51
2022/03/23 11:38:21;;;;;;;49.05;24.92;;;;;;;19.85;29.94;103054.25;5002229;28;20627;-51